Airfield :
LOGIN :

Register | Disclaimer

   EN    FR    IT 

 










Legend :    VFR   Marginal VFR   IFR   Intensive IFR   Very Intensive IFR
Visi :
Ceiling :
>= 8 km
>= 3000ft
5 to 8 km
1000 to 3000 ft
1500m to 5 km
500 to 1000 ft
800 to 1500m
200 to 500 ft
< 800m
< 200 ft
Symbols :   Thunderstorms  Fog  Heavy snow  Heavy precipitations  Wind > 20 kt
SIGMETs :     Misc.  Thunderstorms  Icing  Turbulence  Mountain Waves  Volcanic Ashes






- Airport Elevation : 289 ft


LFYR - Romorantin Pruniers

CURRENT METAR :
  • 211730Z AUTO 26005KT 230V300 9999 FEW017/// SCT032/// BKN058/// ///CB 13/12 Q1015

EXPIRED METARs :
  • 211700Z AUTO 25005KT 220V280 9999 FEW015/// SCT031/// BKN064/// ///CB 14/12 Q1015
  • 211630Z AUTO 24010KT 210V280 9999 -RADZ FEW032/// BKN038/// BKN046/// ///CB 15/11 Q1014
  • 211600Z AUTO 24009KT 210V280 9999 BKN040/// BKN048/// OVC066/// ///CB 16/10 Q1014
  • 211530Z AUTO 24009KT 210V270 9999 FEW042/// SCT048/// BKN056/// ///TCU 17/09 Q1014
  • 211500Z AUTO 25010G20KT 210V290 9999 OVC041 17/09 Q1014 TEMPO 25020G30KT 2000 SHRA BKN012 BKN020CB

TAF TAF LFYR
Valid from the 21 at 15:00 until the 22 at 15:00 UTC


211400Z 2115/2215 24010G20KT 9999 SCT045
TEMPO 2115/2118 25020G30KT 4000 SHRA SCT014 BKN025TCU
PROB40
TEMPO 2115/2117 2000 SHRA BKN012 BKN020CB
BECMG 2118/2120 35008KT
PROB40
TEMPO 2203/2208 1200 BR BKN003



MET'MAP, your aeronautical weather chart ! - Copyright ORBIFLY December 2007 - Disclaimer

ORBIFLY MET'MAP TEAM :

Programming & Development : Alexandra Zaïnal
Concept & original design : Baudouin d'Aumeries
Assistance for programming : Marc-Olivier Méhu
Technical & hardware support : Manuel Goepfert

Contact : metmap@orbifly.com




SOURCES & CREDITS :

   NOAA